Time;durP1;ratioP1;P1;durP2;ratioP2;P2;SDS_P1;SDS_P2;PMS_P1;PMS_P2;Temp;Humidity;BMP_temperature;BMP_pressure;BME280_temperature;BME280_humidity;BME280_pressure;Samples;Min_cycle;Max_cycle;Signal;HPM_P1;HPM_P2
2023/05/14 03:50:36;;;;;;;903.43;790.60;;;7.20;99.90;;;;;;6084739;23;20412;-93
2023/05/14 05:39:33;;;;;;;819.37;746.53;;;10.90;99.90;;;;;;5707874;24;20441;-92
2023/05/14 05:42:01;;;;;;;836.80;765.37;;;10.70;99.90;;;;;;5958260;23;20839;-92
2023/05/14 05:44:28;;;;;;;841.90;770.50;;;10.90;99.90;;;;;;6169619;23;20416;-91
2023/05/14 05:46:56;;;;;;;825.43;756.80;;;11.00;99.90;;;;;;6217354;23;20510;-91
2023/05/14 05:49:23;;;;;;;814.50;752.17;;;11.20;99.90;;;;;;6227894;23;20469;-91
2023/05/14 05:51:57;;;;;;;772.90;719.50;;;11.40;99.90;;;;;;6216729;23;20416;-90
2023/05/14 05:54:26;;;;;;;688.70;643.07;;;11.80;99.90;;;;;;6217117;23;20737;-91
2023/05/14 05:56:54;;;;;;;545.27;515.43;;;12.30;99.90;;;;;;6216933;23;20414;-91
2023/05/14 05:59:21;;;;;;;202.33;193.00;;;12.70;99.90;;;;;;6226170;23;20758;-91
2023/05/14 06:01:48;;;;;;;82.10;77.40;;;13.00;99.90;;;;;;6227187;23;20427;-91
2023/05/14 06:04:15;;;;;;;40.50;37.53;;;13.40;99.90;;;;;;6228136;23;20532;-91
2023/05/14 06:06:42;;;;;;;31.40;26.63;;;13.80;99.90;;;;;;6228514;23;20437;-91
2023/05/14 06:09:09;;;;;;;24.13;21.40;;;14.10;99.90;;;;;;6228884;23;20746;-91
2023/05/14 06:11:36;;;;;;;25.93;23.23;;;14.30;99.90;;;;;;6228957;23;20785;-91
2023/05/14 06:14:05;;;;;;;22.20;19.70;;;14.50;99.90;;;;;;6228558;23;20415;-91
2023/05/14 06:16:32;;;;;;;32.40;22.90;;;14.60;99.90;;;;;;6218447;23;20410;-91
2023/05/14 06:18:59;;;;;;;25.67;22.77;;;14.70;99.90;;;;;;6229215;23;20415;-91
2023/05/14 06:21:26;;;;;;;27.43;23.50;;;14.80;99.90;;;;;;6228362;23;20876;-91
2023/05/14 06:23:53;;;;;;;23.40;20.90;;;14.90;99.90;;;;;;6219984;23;20417;-91
2023/05/14 06:26:20;;;;;;;23.50;19.10;;;15.20;99.90;;;;;;6218617;23;20885;-91
2023/05/14 06:28:47;;;;;;;25.20;21.57;;;15.30;99.90;;;;;;6219003;23;20417;-90
2023/05/14 06:31:16;;;;;;;23.27;20.87;;;15.30;99.90;;;;;;6227799;23;20780;-90
2023/05/14 06:33:43;;;;;;;23.27;18.87;;;15.50;99.90;;;;;;6227536;23;20441;-90
2023/05/14 06:36:10;;;;;;;24.20;18.23;;;15.60;99.90;;;;;;6227405;23;20460;-90
2023/05/14 06:38:37;;;;;;;21.87;19.57;;;15.80;99.90;;;;;;6218295;23;20468;-89
2023/05/14 06:41:05;;;;;;;23.40;18.50;;;16.20;99.90;;;;;;6217776;23;20508;-90
2023/05/14 06:43:32;;;;;;;22.50;19.77;;;16.50;99.90;;;;;;6217637;23;20421;-91
2023/05/14 06:46:00;;;;;;;27.20;19.10;;;16.80;99.90;;;;;;6217469;23;20479;-90
2023/05/14 06:48:29;;;;;;;21.67;18.50;;;17.00;99.90;;;;;;6217859;23;20442;-90
2023/05/14 06:50:56;;;;;;;25.03;19.83;;;16.90;99.90;;;;;;6218001;23;20414;-90
2023/05/14 06:53:23;;;;;;;33.57;20.00;;;16.70;99.90;;;;;;6227595;23;20413;-90
2023/05/14 06:55:50;;;;;;;24.90;19.10;;;16.80;99.90;;;;;;6227818;23;20412;-90
2023/05/14 06:58:17;;;;;;;27.70;21.17;;;16.80;99.90;;;;;;6227540;23;20413;-90
2023/05/14 07:00:44;;;;;;;25.37;20.70;;;16.90;99.90;;;;;;6216210;23;20426;-89
2023/05/14 07:03:11;;;;;;;29.90;23.20;;;17.20;99.90;;;;;;6225735;23;20487;-90
2023/05/14 07:12:35;;;;;;;22.43;20.00;;;17.30;99.90;;;;;;6229399;23;20354;-91
2023/05/14 07:15:02;;;;;;;30.00;20.70;;;17.50;99.90;;;;;;6228250;23;20388;-91
2023/05/14 07:18:18;;;;;;;26.47;20.17;;;17.70;99.90;;;;;;6229289;23;20407;-91
2023/05/14 07:20:56;;;;;;;27.73;20.27;;;17.80;99.90;;;;;;6232140;23;20391;-92
2023/05/14 07:23:23;;;;;;;26.13;22.67;;;17.70;99.90;;;;;;6218318;23;20420;-91
2023/05/14 07:25:50;;;;;;;25.83;20.10;;;17.90;99.90;;;;;;6217832;23;20200;-90
2023/05/14 07:28:28;;;;;;;31.73;21.40;;;17.90;99.90;;;;;;6231657;23;20487;-91
2023/05/14 07:30:55;;;;;;;22.77;20.40;;;18.00;99.90;;;;;;6230876;23;20866;-92
2023/05/14 07:33:23;;;;;;;26.53;19.00;;;17.80;99.90;;;;;;6219488;23;20415;-91
2023/05/14 07:39:48;;;;;;;26.83;20.17;;;18.00;99.90;;;;;;5134344;27;20552;-90
2023/05/14 07:42:15;;;;;;;21.20;18.30;;;17.90;99.90;;;;;;5132805;27;20463;-91
2023/05/14 07:44:42;;;;;;;24.10;19.27;;;17.90;99.90;;;;;;5132661;28;20453;-91
2023/05/14 07:47:09;;;;;;;28.23;19.60;;;18.00;99.90;;;;;;5133320;27;20448;-90
2023/05/14 07:49:36;;;;;;;25.80;20.77;;;18.00;99.90;;;;;;5134756;28;20456;-91
2023/05/14 07:52:03;;;;;;;20.53;17.67;;;18.00;99.90;;;;;;5132256;28;20459;-90
2023/05/14 07:54:30;;;;;;;22.27;17.50;;;17.90;99.90;;;;;;5132239;27;20487;-90
2023/05/14 07:56:59;;;;;;;22.70;19.00;;;18.00;99.90;;;;;;5132099;27;20460;-90
2023/05/14 07:59:29;;;;;;;25.87;20.57;;;18.10;99.90;;;;;;5132407;27;20540;-90
2023/05/14 08:08:40;;;;;;;21.67;18.60;;;19.10;99.90;;;;;;5134202;28;20428;-91
2023/05/14 08:15:03;;;;;;;21.00;17.80;;;20.00;99.90;;;;;;5135412;27;20408;-91
2023/05/14 08:18:12;;;;;;;22.00;17.00;;;20.50;99.90;;;;;;5134134;27;20194;-89
2023/05/14 10:30:30;;;;;;;20.57;10.97;;;24.90;48.20;;;;;;4833083;29;20268;-89
2023/05/14 10:33:17;;;;;;;18.33;11.10;;;25.60;44.70;;;;;;4986509;28;20475;-88
2023/05/14 10:36:12;;;;;;;15.80;11.43;;;25.80;40.60;;;;;;5014385;28;20936;-90
2023/05/14 10:39:14;;;;;;;18.67;10.93;;;26.60;34.30;;;;;;5017779;28;20481;-89
2023/05/14 10:42:00;;;;;;;16.50;10.10;;;25.60;39.80;;;;;;5027181;28;20475;-90
2023/05/14 10:54:28;;;;;;;11.32;8.20;;;26.60;25.40;;;;;;5063369;22;20853;-92
2023/05/14 10:56:58;;;;;;;11.82;9.55;;;24.90;30.60;;;;;;5140458;27;20190;-93
2023/05/14 10:59:27;;;;;;;12.80;9.53;;;24.50;30.30;;;;;;5141416;27;20210;-93
2023/05/14 11:01:57;;;;;;;13.70;10.10;;;24.50;37.90;;;;;;5144250;27;20466;-95
2023/05/14 11:04:29;;;;;;;14.10;8.97;;;25.50;23.60;;;;;;5158220;27;20494;-95
2023/05/14 11:06:57;;;;;;;13.37;7.47;;;27.10;21.30;;;;;;5120038;22;20489;-66
2023/05/14 11:09:25;;;;;;;15.03;8.80;;;29.00;18.00;;;;;;5091049;28;20445;-67
2023/05/14 11:11:53;;;;;;;13.63;8.40;;;29.30;10.50;;;;;;5091378;28;20480;-67
2023/05/14 11:14:20;;;;;;;15.80;8.50;;;28.70;12.20;;;;;;5091711;28;20449;-67
2023/05/14 11:16:47;;;;;;;11.80;9.00;;;27.30;13.00;;;;;;5093596;28;20449;-66
2023/05/14 11:19:14;;;;;;;11.13;8.83;;;25.00;17.90;;;;;;5091949;28;20846;-66
2023/05/14 11:21:42;;;;;;;12.00;9.02;;;25.20;20.80;;;;;;5091394;28;20464;-67
2023/05/14 11:24:09;;;;;;;12.70;9.40;;;25.70;27.00;;;;;;5092408;28;20584;-66
2023/05/14 11:26:36;;;;;;;14.80;10.83;;;26.10;23.80;;;;;;5093828;28;20791;-66
2023/05/14 11:29:05;;;;;;;12.87;9.93;;;26.60;18.90;;;;;;5091316;28;20811;-66
2023/05/14 11:31:32;;;;;;;11.87;9.50;;;27.90;15.30;;;;;;5091274;28;20948;-66
2023/05/14 11:33:59;;;;;;;13.13;9.17;;;28.40;13.20;;;;;;5092076;28;20542;-67
2023/05/14 11:36:26;;;;;;;12.10;8.73;;;29.00;10.30;;;;;;5093891;28;20506;-66
2023/05/14 11:38:54;;;;;;;10.00;7.60;;;29.60;6.10;;;;;;5091538;28;20480;-66
2023/05/14 11:41:21;;;;;;;13.38;8.00;;;30.30;3.30;;;;;;5091346;28;20453;-65
2023/05/14 11:43:48;;;;;;;9.40;7.37;;;29.90;1.00;;;;;;5091730;28;20203;-66
2023/05/14 11:46:18;;;;;;;9.70;7.07;;;29.10;1.00;;;;;;5093738;28;20453;-65
2023/05/14 11:48:45;;;;;;;9.90;7.67;;;28.00;4.70;;;;;;5091006;28;20195;-65
2023/05/14 11:51:12;;;;;;;8.30;5.80;;;26.70;6.70;;;;;;5091357;28;20453;-66
2023/05/14 11:53:39;;;;;;;7.37;4.87;;;24.80;8.00;;;;;;5091841;28;20817;-65
2023/05/14 11:56:08;;;;;;;8.52;5.32;;;24.10;17.00;;;;;;5093463;28;20468;-65
2023/05/14 11:58:35;;;;;;;10.60;5.33;;;23.00;17.90;;;;;;5091600;28;20269;-65
2023/05/14 12:01:02;;;;;;;9.27;4.90;;;22.40;22.90;;;;;;5090530;28;20456;-65
2023/05/14 12:03:30;;;;;;;6.70;4.40;;;22.80;21.70;;;;;;5091401;28;21045;-65
2023/05/14 12:05:57;;;;;;;7.57;4.40;;;24.00;12.70;;;;;;5093068;28;20461;-65
2023/05/14 12:08:27;;;;;;;10.57;4.50;;;24.50;5.20;;;;;;5091021;28;20936;-64
2023/05/14 12:10:54;;;;;;;6.90;4.03;;;25.70;5.40;;;;;;5090178;28;20445;-65
2023/05/14 12:13:26;;;;;;;9.10;4.50;;;27.00;1.00;;;;;;5090634;28;20453;-65
2023/05/14 12:15:55;;;;;;;11.10;4.87;;;28.20;1.00;;;;;;5093557;28;20767;-65
2023/05/14 12:18:22;;;;;;;7.80;4.13;;;29.70;1.00;;;;;;5091481;28;20499;-65
2023/05/14 12:20:50;;;;;;;7.88;4.05;;;29.40;1.00;;;;;;5090484;28;20456;-65
2023/05/14 12:23:17;;;;;;;7.73;4.03;;;29.20;1.00;;;;;;5091204;28;20286;-65
2023/05/14 12:25:50;;;;;;;7.17;4.60;;;29.10;1.00;;;;;;5095733;28;20453;-65
2023/05/14 12:28:18;;;;;;;8.07;5.20;;;28.40;1.00;;;;;;5095119;28;20449;-65
2023/05/14 12:30:46;;;;;;;10.13;6.87;;;26.70;4.50;;;;;;5094263;28;20456;-66
2023/05/14 12:33:15;;;;;;;11.80;7.20;;;25.40;13.00;;;;;;5094298;28;20457;-67
2023/05/14 12:35:42;;;;;;;8.70;6.67;;;23.60;12.50;;;;;;5096718;28;20453;-66
2023/05/14 12:38:08;;;;;;;10.13;5.87;;;23.20;20.00;;;;;;5094689;28;20971;-66
2023/05/14 12:40:35;;;;;;;10.70;6.50;;;23.30;19.70;;;;;;5094005;28;20445;-66
2023/05/14 12:43:03;;;;;;;11.50;6.33;;;23.40;15.90;;;;;;5093782;28;20460;-66
2023/05/14 12:45:30;;;;;;;14.33;8.07;;;24.10;20.30;;;;;;5080138;28;20447;-66
2023/05/14 12:47:58;;;;;;;12.60;7.60;;;24.40;10.90;;;;;;5075198;28;20441;-66
2023/05/14 12:50:25;;;;;;;14.20;6.20;;;24.40;15.40;;;;;;5073869;28;20453;-67
2023/05/14 12:52:52;;;;;;;10.87;6.70;;;24.40;11.30;;;;;;5074230;28;20290;-66
2023/05/14 12:55:18;;;;;;;10.77;7.63;;;24.70;12.20;;;;;;5075960;28;20465;-66
2023/05/14 12:57:45;;;;;;;8.75;5.93;;;24.40;10.30;;;;;;5074699;28;20962;-67
2023/05/14 13:00:13;;;;;;;10.33;6.40;;;24.50;14.30;;;;;;5075860;28;20586;-66
2023/05/14 13:02:40;;;;;;;9.95;5.80;;;24.60;15.50;;;;;;5082207;28;20489;-67
2023/05/14 13:05:09;;;;;;;12.80;5.80;;;25.00;12.30;;;;;;5094745;28;20685;-66
2023/05/14 13:07:36;;;;;;;10.17;5.60;;;24.80;8.00;;;;;;5094500;28;20992;-65
2023/05/14 13:10:04;;;;;;;8.40;4.90;;;25.60;16.10;;;;;;5093070;28;20842;-66
2023/05/14 13:12:31;;;;;;;7.27;4.30;;;25.40;7.20;;;;;;5093226;28;20463;-65
2023/05/14 13:14:58;;;;;;;7.30;4.30;;;25.30;4.20;;;;;;5094972;28;20453;-65
2023/05/14 13:17:25;;;;;;;7.27;3.83;;;25.40;3.00;;;;;;5095783;28;20449;-65
2023/05/14 13:19:51;;;;;;;9.67;4.27;;;25.70;4.00;;;;;;5093553;28;20485;-65
2023/05/14 13:22:19;;;;;;;7.97;3.93;;;25.70;1.30;;;;;;5094043;28;20457;-66
2023/05/14 13:24:46;;;;;;;8.57;3.83;;;26.40;1.90;;;;;;5094902;28;20454;-65
2023/05/14 13:27:13;;;;;;;9.27;4.37;;;26.10;1.90;;;;;;5095400;28;20815;-65
2023/05/14 13:29:40;;;;;;;8.00;3.80;;;26.30;1.50;;;;;;5093613;28;20452;-65
2023/05/14 13:32:07;;;;;;;9.60;4.20;;;26.60;1.00;;;;;;5093726;28;21156;-66
2023/05/14 13:34:35;;;;;;;7.17;4.20;;;26.20;1.00;;;;;;5094928;28;20449;-65
2023/05/14 13:37:02;;;;;;;17.20;4.50;;;26.30;1.00;;;;;;5095039;28;20453;-65
2023/05/14 13:39:30;;;;;;;7.90;3.93;;;26.20;1.00;;;;;;5093535;28;21048;-65
2023/05/14 13:41:57;;;;;;;8.23;3.37;;;26.10;1.00;;;;;;5093471;28;20453;-66
2023/05/14 13:44:24;;;;;;;9.03;3.37;;;25.60;1.00;;;;;;5094147;28;20449;-66
2023/05/14 13:46:51;;;;;;;9.50;4.73;;;25.50;1.00;;;;;;5094955;28;20662;-66
2023/05/14 13:49:18;;;;;;;9.57;4.85;;;25.10;1.00;;;;;;5093626;28;20936;-66
2023/05/14 13:51:45;;;;;;;8.90;4.70;;;25.50;1.00;;;;;;5093339;28;20202;-65
2023/05/14 13:54:12;;;;;;;9.00;3.87;;;25.90;1.00;;;;;;5093774;28;20453;-67
2023/05/14 13:56:40;;;;;;;11.70;3.80;;;25.70;1.00;;;;;;5095220;28;20457;-66
2023/05/14 13:59:06;;;;;;;7.07;4.00;;;25.80;1.00;;;;;;5092513;28;20476;-66
2023/05/14 14:01:33;;;;;;;6.43;2.90;;;25.80;1.00;;;;;;5092679;28;20461;-67
2023/05/14 14:04:00;;;;;;;7.37;3.03;;;26.20;1.00;;;;;;5093071;28;20454;-66
2023/05/14 14:06:27;;;;;;;7.45;2.90;;;26.20;1.00;;;;;;5094353;28;20444;-66
2023/05/14 14:08:54;;;;;;;5.70;2.50;;;26.80;1.00;;;;;;5078973;28;20214;-68
2023/05/14 14:11:21;;;;;;;8.27;2.53;;;26.90;1.00;;;;;;5072045;28;20987;-67
2023/05/14 14:13:49;;;;;;;8.20;2.60;;;26.80;1.00;;;;;;5072113;28;20462;-67
2023/05/14 14:16:16;;;;;;;7.03;2.80;;;26.70;1.00;;;;;;5074910;28;20461;-67
2023/05/14 14:18:42;;;;;;;5.73;2.93;;;26.70;1.00;;;;;;5082667;28;20461;-67
2023/05/14 14:21:09;;;;;;;6.17;3.07;;;26.40;1.00;;;;;;5092415;28;20431;-67
2023/05/14 14:23:36;;;;;;;6.47;2.60;;;25.30;1.00;;;;;;5092927;28;20458;-67
2023/05/14 14:26:03;;;;;;;7.47;3.70;;;24.70;1.00;;;;;;5093954;28;20540;-68
2023/05/14 14:28:30;;;;;;;7.38;3.60;;;24.70;1.00;;;;;;5092119;28;20456;-68
2023/05/14 14:30:58;;;;;;;8.80;2.97;;;24.60;1.00;;;;;;5092472;28;20191;-68
2023/05/14 14:33:25;;;;;;;12.17;3.40;;;24.30;1.00;;;;;;5091479;28;20445;-67
2023/05/14 14:35:52;;;;;;;6.90;2.87;;;24.50;1.00;;;;;;5094498;28;20453;-67
2023/05/14 14:38:19;;;;;;;10.43;3.20;;;24.60;1.00;;;;;;5079005;28;20801;-66
2023/05/14 14:40:46;;;;;;;9.40;3.03;;;25.10;1.00;;;;;;5072068;28;20482;-66
2023/05/14 14:43:13;;;;;;;6.07;2.90;;;25.40;1.00;;;;;;5082858;28;20454;-67
2023/05/14 14:45:41;;;;;;;6.47;2.77;;;25.30;1.00;;;;;;5084057;28;20449;-66
2023/05/14 14:48:29;;;;;;;6.80;3.40;;;25.60;1.00;;;;;;5072396;28;20500;-67
2023/05/14 14:50:56;;;;;;;7.73;3.27;;;26.10;1.00;;;;;;5073460;28;20438;-66
2023/05/14 14:53:23;;;;;;;6.73;3.37;;;26.20;1.00;;;;;;5075140;28;20450;-66
2023/05/14 14:55:51;;;;;;;6.32;2.63;;;26.40;1.00;;;;;;5089488;28;20446;-67
2023/05/14 14:58:20;;;;;;;8.00;3.93;;;26.10;1.00;;;;;;5077641;28;20183;-66
2023/05/14 15:00:47;;;;;;;10.40;3.27;;;26.60;1.00;;;;;;5078103;28;20474;-66
2023/05/14 15:03:14;;;;;;;6.23;3.17;;;26.80;1.00;;;;;;5084380;28;20449;-66
2023/05/14 15:05:42;;;;;;;6.23;2.93;;;26.40;1.00;;;;;;5093591;28;20467;-66
2023/05/14 15:08:09;;;;;;;6.73;2.80;;;26.20;1.00;;;;;;5081084;28;20823;-66
2023/05/14 15:10:37;;;;;;;5.83;2.50;;;26.40;1.00;;;;;;5084785;28;20442;-66
2023/05/14 15:13:05;;;;;;;6.43;2.90;;;25.60;1.00;;;;;;5088854;28;20457;-66
2023/05/14 15:15:32;;;;;;;7.53;3.07;;;25.50;1.00;;;;;;5074360;28;20642;-66
2023/05/14 15:17:59;;;;;;;13.10;2.83;;;25.00;1.00;;;;;;5072304;28;20784;-67
2023/05/14 15:20:26;;;;;;;7.67;3.17;;;24.20;1.00;;;;;;5070204;28;20474;-66
2023/05/14 15:22:54;;;;;;;7.63;2.70;;;23.70;1.00;;;;;;5071549;28;20450;-66
2023/05/14 15:25:22;;;;;;;7.97;3.07;;;23.50;1.00;;;;;;5072731;28;20456;-66
2023/05/14 15:27:49;;;;;;;6.53;3.10;;;23.40;1.00;;;;;;5072214;28;20458;-66
2023/05/14 15:30:16;;;;;;;6.63;3.40;;;23.60;1.00;;;;;;5071047;28;20461;-66
2023/05/14 15:32:44;;;;;;;8.27;2.97;;;23.60;1.40;;;;;;5071036;28;20465;-66
2023/05/14 15:35:11;;;;;;;7.00;2.70;;;23.20;1.00;;;;;;5091838;28;20457;-66
2023/05/14 15:37:39;;;;;;;5.90;2.53;;;23.10;1.00;;;;;;5089410;28;20967;-66
2023/05/14 15:40:09;;;;;;;6.33;3.30;;;23.00;1.00;;;;;;5091497;28;20477;-66
2023/05/14 15:42:36;;;;;;;7.03;3.60;;;23.00;1.00;;;;;;5091683;28;20456;-66
2023/05/14 15:45:03;;;;;;;6.10;3.40;;;22.90;1.00;;;;;;5092216;28;20445;-66
2023/05/14 15:47:30;;;;;;;7.03;3.60;;;22.90;2.20;;;;;;5092899;28;20449;-66
2023/05/14 15:49:58;;;;;;;6.57;2.57;;;22.70;1.00;;;;;;5078254;28;20534;-67
2023/05/14 15:52:25;;;;;;;12.60;3.23;;;22.50;1.90;;;;;;5074735;28;20534;-65
2023/05/14 15:54:53;;;;;;;4.82;2.28;;;22.30;1.00;;;;;;5091743;28;20508;-66
2023/05/14 15:57:21;;;;;;;7.70;2.73;;;22.00;3.20;;;;;;5091689;28;20202;-66
2023/05/14 15:59:48;;;;;;;10.10;2.87;;;22.20;3.40;;;;;;5079334;28;20465;-65
2023/05/14 16:02:15;;;;;;;6.87;2.80;;;22.10;1.00;;;;;;5087136;28;20462;-65
2023/05/14 16:04:43;;;;;;;5.53;3.00;;;22.30;2.40;;;;;;5074586;28;20448;-64
2023/05/14 16:07:11;;;;;;;6.30;2.53;;;22.10;5.00;;;;;;5077710;28;20971;-65
2023/05/14 16:09:38;;;;;;;9.27;3.50;;;22.00;6.00;;;;;;5093239;28;20444;-65
2023/05/14 16:12:06;;;;;;;7.60;3.47;;;22.00;4.70;;;;;;5092918;28;20451;-64
2023/05/14 16:14:35;;;;;;;7.43;3.43;;;22.10;7.10;;;;;;5094685;28;20458;-65
2023/05/14 16:17:02;;;;;;;6.77;3.30;;;22.10;3.80;;;;;;5096398;28;20456;-65
2023/05/14 16:19:29;;;;;;;10.40;3.30;;;22.00;6.00;;;;;;5073281;28;20461;-65
2023/05/14 16:21:56;;;;;;;6.07;2.83;;;22.10;11.90;;;;;;5084923;28;20447;-65
2023/05/14 16:24:23;;;;;;;6.37;3.20;;;21.90;9.90;;;;;;5093126;28;20813;-64
2023/05/14 16:26:49;;;;;;;6.90;3.90;;;21.60;5.70;;;;;;5096388;28;20459;-65
2023/05/14 16:29:16;;;;;;;8.47;3.80;;;21.40;11.10;;;;;;5093970;28;20823;-65
2023/05/14 16:31:44;;;;;;;14.23;4.63;;;21.60;11.70;;;;;;5093730;28;20452;-65
2023/05/14 16:34:11;;;;;;;9.13;4.50;;;21.20;6.50;;;;;;5094901;28;20480;-65
2023/05/14 16:36:39;;;;;;;9.03;3.57;;;21.00;10.50;;;;;;5096632;28;20795;-65
2023/05/14 16:39:06;;;;;;;7.57;4.05;;;21.00;13.60;;;;;;5093250;28;20449;-65
2023/05/14 16:41:33;;;;;;;8.80;4.10;;;20.90;17.90;;;;;;5092340;28;20215;-65
2023/05/14 16:44:00;;;;;;;6.28;3.55;;;20.60;18.50;;;;;;5093651;28;20452;-64
2023/05/14 16:46:28;;;;;;;6.17;3.33;;;20.60;20.10;;;;;;5097387;28;20216;-65
2023/05/14 16:48:56;;;;;;;7.73;3.47;;;20.50;14.80;;;;;;5092895;28;20442;-65
2023/05/14 16:51:22;;;;;;;7.47;4.17;;;20.40;18.80;;;;;;5093642;28;20442;-65
2023/05/14 16:53:49;;;;;;;9.90;3.60;;;20.30;20.30;;;;;;5093740;28;20783;-65
2023/05/14 16:56:16;;;;;;;7.50;3.33;;;20.30;21.30;;;;;;5096751;28;20813;-65
2023/05/14 16:58:43;;;;;;;8.27;4.33;;;20.10;21.40;;;;;;5093100;28;20963;-65
2023/05/14 17:01:10;;;;;;;7.67;4.13;;;20.00;24.00;;;;;;5091924;28;20559;-65
2023/05/14 17:03:36;;;;;;;13.57;3.53;;;20.10;23.60;;;;;;5093404;28;20934;-65
2023/05/14 17:06:05;;;;;;;6.00;3.70;;;20.10;24.80;;;;;;5096100;28;20460;-65
2023/05/14 17:08:34;;;;;;;8.77;3.80;;;20.10;24.60;;;;;;5090475;28;20457;-65
2023/05/14 17:11:04;;;;;;;7.80;4.23;;;20.00;25.00;;;;;;5090826;28;20862;-65
2023/05/14 17:13:31;;;;;;;8.63;3.80;;;20.10;28.40;;;;;;5087857;28;20512;-64
2023/05/14 17:15:58;;;;;;;12.52;4.78;;;20.20;27.40;;;;;;5075753;28;20454;-64
2023/05/14 17:18:25;;;;;;;8.33;4.50;;;20.20;27.20;;;;;;5085322;28;20905;-65
2023/05/14 17:20:51;;;;;;;6.90;4.13;;;20.40;28.80;;;;;;5092774;28;20476;-65
2023/05/14 17:23:20;;;;;;;8.93;4.73;;;20.50;27.40;;;;;;5092797;28;20544;-65
2023/05/14 17:25:46;;;;;;;6.33;3.63;;;20.50;27.40;;;;;;5095434;28;20947;-65
2023/05/14 17:28:13;;;;;;;7.30;4.00;;;20.50;30.00;;;;;;5090835;28;20454;-65
2023/05/14 17:30:41;;;;;;;8.80;3.93;;;20.50;27.40;;;;;;5093522;28;20959;-65
2023/05/14 17:33:07;;;;;;;9.90;3.60;;;20.50;27.40;;;;;;5093667;28;20456;-65
2023/05/14 17:35:35;;;;;;;8.90;3.93;;;20.40;26.50;;;;;;5095478;28;20445;-65
2023/05/14 17:38:02;;;;;;;7.13;4.28;;;20.20;24.90;;;;;;5094407;28;20545;-65
2023/05/14 17:40:30;;;;;;;7.70;4.40;;;20.10;28.60;;;;;;5093303;28;20557;-65
2023/05/14 17:42:57;;;;;;;7.00;3.70;;;19.80;29.40;;;;;;5092956;28;20452;-65
2023/05/14 17:45:24;;;;;;;9.87;4.97;;;19.50;31.20;;;;;;5094955;28;20543;-65
2023/05/14 17:47:51;;;;;;;7.30;4.60;;;19.30;31.80;;;;;;5094182;28;20463;-65
2023/05/14 17:50:18;;;;;;;8.43;4.32;;;19.00;31.70;;;;;;5091336;28;20990;-65
2023/05/14 17:52:46;;;;;;;6.60;3.90;;;18.90;34.30;;;;;;5092605;28;20464;-65
2023/05/14 17:55:13;;;;;;;8.00;5.00;;;18.70;34.10;;;;;;5094897;28;20454;-65
2023/05/14 17:57:41;;;;;;;6.90;4.27;;;18.60;38.60;;;;;;5094360;28;20485;-65
2023/05/14 18:00:09;;;;;;;11.07;5.53;;;18.50;33.90;;;;;;5092779;28;20927;-65
2023/05/14 18:02:36;;;;;;;7.70;4.93;;;18.40;40.80;;;;;;5088801;28;21014;-65
2023/05/14 18:05:03;;;;;;;8.03;4.77;;;18.20;40.90;;;;;;5073627;28;20802;-65
2023/05/14 18:07:30;;;;;;;9.33;5.17;;;18.10;40.20;;;;;;5073547;28;20808;-65
2023/05/14 18:09:57;;;;;;;7.83;5.00;;;18.00;42.50;;;;;;5071771;28;20532;-65
2023/05/14 18:12:25;;;;;;;7.23;4.67;;;17.90;42.60;;;;;;5086833;28;20462;-65
2023/05/14 18:14:53;;;;;;;11.70;5.10;;;17.70;42.20;;;;;;5093507;28;20462;-64
2023/05/14 18:17:20;;;;;;;9.13;4.50;;;17.60;42.80;;;;;;5092824;28;20451;-65
2023/05/14 18:19:47;;;;;;;10.32;5.00;;;17.60;42.90;;;;;;5077318;28;20451;-65
2023/05/14 18:22:14;;;;;;;9.43;5.60;;;17.40;44.80;;;;;;5082568;28;20217;-65
2023/05/14 18:24:43;;;;;;;10.40;5.00;;;17.40;44.60;;;;;;5092782;28;20454;-64
2023/05/14 18:27:09;;;;;;;7.93;4.33;;;17.30;45.50;;;;;;5093655;28;20455;-65
2023/05/14 18:29:36;;;;;;;9.20;3.88;;;17.30;46.40;;;;;;5091585;28;20507;-65
2023/05/14 18:32:05;;;;;;;8.37;5.13;;;17.20;46.60;;;;;;5091494;28;20458;-64
2023/05/14 18:34:32;;;;;;;9.90;5.13;;;17.00;45.80;;;;;;5084075;28;20949;-65
2023/05/14 18:36:59;;;;;;;8.80;5.43;;;16.90;50.30;;;;;;5073808;28;20451;-65
2023/05/14 18:39:26;;;;;;;10.70;6.80;;;16.80;50.20;;;;;;5077417;28;20461;-65
2023/05/14 18:41:53;;;;;;;12.35;5.50;;;16.70;51.40;;;;;;5080501;28;20478;-64
2023/05/14 18:44:20;;;;;;;8.20;4.97;;;16.60;53.80;;;;;;5092297;28;20202;-64
2023/05/14 18:46:47;;;;;;;8.90;5.10;;;16.50;58.20;;;;;;5093912;28;20540;-64
2023/05/14 18:49:15;;;;;;;7.83;5.10;;;16.40;59.70;;;;;;5091772;28;20487;-67
2023/05/14 18:51:42;;;;;;;8.83;5.47;;;16.30;60.00;;;;;;5091034;28;20940;-64
2023/05/14 18:54:10;;;;;;;8.50;4.70;;;16.30;58.40;;;;;;5092311;28;20457;-64
2023/05/14 18:56:38;;;;;;;13.80;5.40;;;16.20;59.40;;;;;;5094564;28;20482;-66
2023/05/14 18:59:05;;;;;;;9.13;5.47;;;16.00;60.70;;;;;;5091220;28;20856;-67
2023/05/14 19:01:32;;;;;;;10.60;4.80;;;16.10;60.20;;;;;;5082799;28;20571;-67
2023/05/14 19:03:59;;;;;;;7.77;4.60;;;16.10;63.10;;;;;;5070828;28;20460;-67
2023/05/14 19:06:27;;;;;;;9.40;4.50;;;16.10;59.30;;;;;;5087937;28;20467;-66
2023/05/14 19:08:54;;;;;;;10.03;4.23;;;16.00;58.10;;;;;;5090479;28;20455;-66
2023/05/14 19:11:21;;;;;;;6.40;4.10;;;16.10;57.10;;;;;;5090195;28;20474;-67
2023/05/14 19:13:48;;;;;;;8.30;4.95;;;16.20;53.50;;;;;;5087489;28;20537;-67
2023/05/14 19:16:15;;;;;;;7.30;4.67;;;16.30;51.50;;;;;;5094523;28;20205;-67
2023/05/14 19:18:42;;;;;;;10.70;4.90;;;16.50;50.00;;;;;;5091680;28;20456;-66
2023/05/14 19:21:09;;;;;;;9.53;3.90;;;16.50;50.00;;;;;;5091345;28;20867;-67
2023/05/14 19:23:38;;;;;;;8.93;3.90;;;16.70;47.70;;;;;;5091181;28;20453;-67
2023/05/14 19:26:05;;;;;;;6.40;3.55;;;16.80;47.30;;;;;;5094100;28;20458;-67
2023/05/14 19:28:32;;;;;;;6.57;3.73;;;16.80;46.20;;;;;;5083845;28;20212;-67
2023/05/14 19:30:59;;;;;;;11.23;4.40;;;16.90;45.60;;;;;;5090547;28;20927;-67
2023/05/14 19:33:26;;;;;;;9.50;4.67;;;16.90;44.90;;;;;;5091249;28;20453;-67
2023/05/14 19:35:53;;;;;;;10.30;5.13;;;16.80;48.50;;;;;;5093890;28;20451;-66
2023/05/14 19:38:20;;;;;;;7.60;4.17;;;16.70;51.00;;;;;;5091605;28;20940;-67
2023/05/14 19:40:49;;;;;;;8.93;5.05;;;16.60;56.30;;;;;;5085877;28;20483;-67
2023/05/14 19:43:16;;;;;;;7.70;5.23;;;16.40;60.10;;;;;;5089702;28;20199;-67
2023/05/14 19:45:44;;;;;;;8.60;5.80;;;16.30;66.70;;;;;;5093575;28;20473;-66
2023/05/14 19:48:13;;;;;;;11.30;5.20;;;16.10;67.40;;;;;;5091923;28;20458;-67
2023/05/14 19:50:40;;;;;;;9.23;5.13;;;15.90;67.80;;;;;;5090839;28;20453;-66
2023/05/14 19:53:07;;;;;;;8.70;5.67;;;16.00;69.50;;;;;;5091461;28;20465;-67
2023/05/14 19:55:34;;;;;;;7.63;5.30;;;15.90;69.20;;;;;;5092991;28;20520;-66
2023/05/14 19:58:02;;;;;;;7.73;5.13;;;15.90;69.20;;;;;;5092033;28;20453;-67
2023/05/14 20:00:29;;;;;;;11.13;5.20;;;15.80;67.80;;;;;;5090043;28;20458;-67
2023/05/14 20:02:58;;;;;;;8.43;5.30;;;15.70;68.70;;;;;;5090179;28;20452;-66
2023/05/14 20:05:24;;;;;;;8.63;5.60;;;15.70;70.40;;;;;;5092385;28;20498;-66
2023/05/14 20:07:52;;;;;;;9.87;5.50;;;15.70;75.10;;;;;;5081083;28;20451;-67
2023/05/14 20:10:19;;;;;;;12.73;7.43;;;15.60;74.10;;;;;;5071011;28;20813;-64
2023/05/14 20:12:46;;;;;;;15.43;7.53;;;15.50;77.30;;;;;;5071449;28;20449;-64
2023/05/14 20:15:15;;;;;;;10.73;6.55;;;15.50;82.00;;;;;;5072598;28;20457;-64
2023/05/14 20:17:42;;;;;;;9.60;6.17;;;15.40;82.50;;;;;;5071685;28;20209;-67
2023/05/14 20:20:10;;;;;;;11.20;7.77;;;15.30;81.80;;;;;;5068535;28;20449;-67
2023/05/14 20:22:38;;;;;;;11.57;6.93;;;15.30;81.80;;;;;;5075217;28;20476;-67
2023/05/14 20:25:06;;;;;;;10.20;7.07;;;15.20;81.60;;;;;;5101038;28;20511;-67
2023/05/14 20:27:33;;;;;;;10.50;7.17;;;15.20;81.70;;;;;;5092295;28;20454;-66
2023/05/14 20:30:00;;;;;;;13.70;7.30;;;15.30;81.80;;;;;;5090857;28;20827;-67
2023/05/14 20:32:28;;;;;;;12.40;6.90;;;15.20;83.90;;;;;;5083259;28;20530;-66
2023/05/14 20:35:00;;;;;;;8.53;5.53;;;15.10;82.60;;;;;;5089893;28;20478;-67
2023/05/14 20:37:28;;;;;;;8.93;6.00;;;15.10;82.40;;;;;;5087188;28;20449;-67
2023/05/14 20:39:55;;;;;;;8.97;5.90;;;14.90;83.10;;;;;;5071681;28;20543;-67
2023/05/14 20:42:22;;;;;;;10.47;4.97;;;14.90;81.40;;;;;;5070860;28;20519;-67
2023/05/14 20:44:49;;;;;;;8.93;6.37;;;14.80;84.40;;;;;;5071728;28;20455;-66
2023/05/14 20:47:19;;;;;;;8.90;5.85;;;14.90;89.10;;;;;;5075788;28;20450;-66
2023/05/14 20:49:48;;;;;;;13.15;6.20;;;14.70;92.90;;;;;;5073862;28;20938;-66
2023/05/14 20:52:15;;;;;;;9.38;6.30;;;14.80;92.90;;;;;;5074460;28;20450;-66
2023/05/14 20:54:42;;;;;;;10.03;7.03;;;14.80;91.70;;;;;;5075379;28;20229;-66
2023/05/14 20:57:09;;;;;;;13.10;8.07;;;14.90;91.90;;;;;;5075903;28;20451;-67
2023/05/14 20:59:36;;;;;;;10.80;7.22;;;14.80;92.90;;;;;;5074273;28;20941;-65
2023/05/14 21:02:03;;;;;;;10.30;7.80;;;14.90;95.10;;;;;;5073831;28;20216;-66
2023/05/14 21:04:30;;;;;;;11.40;8.27;;;14.80;96.30;;;;;;5074966;28;20455;-67